createdAt,value
2022-12-12T00:01:54.771Z,31.30
2022-12-12T00:04:43.201Z,31.17
2022-12-12T00:07:31.591Z,33.37
2022-12-12T00:10:20.149Z,31.23
2022-12-12T00:13:08.575Z,31.70
2022-12-12T00:15:58.422Z,34.80
2022-12-12T00:18:46.970Z,28.03
2022-12-12T00:21:35.376Z,31.50
2022-12-12T00:24:23.843Z,28.70
2022-12-12T00:27:12.251Z,32.43
2022-12-12T00:30:00.696Z,32.70
2022-12-12T00:32:50.421Z,36.97
2022-12-12T00:35:38.842Z,37.00
2022-12-12T00:38:27.626Z,33.97
2022-12-12T00:41:16.186Z,34.90
2022-12-12T00:44:04.621Z,37.73
2022-12-12T00:46:53.077Z,36.23
2022-12-12T00:49:42.867Z,34.20
2022-12-12T00:52:31.934Z,32.90
2022-12-12T00:55:20.900Z,34.73
2022-12-12T00:58:09.381Z,36.67
2022-12-12T01:01:06.092Z,33.87
2022-12-12T01:03:54.843Z,37.13
2022-12-12T01:06:44.579Z,35.27
2022-12-12T01:09:34.182Z,35.47
2022-12-12T01:12:22.599Z,35.67
2022-12-12T01:15:12.790Z,35.40
2022-12-12T01:18:01.337Z,36.60
2022-12-12T01:20:49.774Z,35.70
2022-12-12T01:23:39.619Z,38.93
2022-12-12T01:26:28.091Z,36.60
2022-12-12T01:29:16.559Z,34.10
2022-12-12T01:32:05.329Z,33.87
2022-12-12T01:34:53.740Z,37.90
2022-12-12T01:37:42.302Z,36.23
2022-12-12T01:40:32.143Z,32.53
2022-12-12T01:43:21.712Z,35.20
2022-12-12T01:46:44.511Z,35.83
2022-12-12T01:49:34.401Z,31.50
2022-12-12T01:52:24.482Z,32.43
2022-12-12T01:55:16.798Z,33.57
2022-12-12T01:58:06.581Z,34.27
2022-12-12T02:00:55.022Z,34.57
2022-12-12T02:03:43.553Z,34.77
2022-12-12T02:06:32.663Z,32.57
2022-12-12T02:09:21.154Z,34.53
2022-12-12T02:12:12.784Z,33.43
2022-12-12T02:15:06.855Z,35.33
2022-12-12T02:18:03.644Z,31.43
2022-12-12T02:21:02.909Z,32.23
2022-12-12T02:24:46.222Z,35.37
2022-12-12T02:27:55.579Z,32.43
2022-12-12T02:30:56.027Z,33.90
2022-12-12T02:33:50.364Z,33.90
2022-12-12T02:36:44.963Z,35.23
2022-12-12T02:39:38.742Z,32.30
2022-12-12T02:42:29.893Z,30.27
2022-12-12T02:45:21.438Z,29.33
2022-12-12T02:48:15.933Z,30.67
2022-12-12T02:51:05.875Z,31.53
2022-12-12T02:53:54.873Z,29.87
2022-12-12T02:56:50.149Z,32.90
2022-12-12T02:59:40.767Z,30.13
2022-12-12T03:03:16.478Z,30.73
2022-12-12T03:06:40.885Z,30.93
2022-12-12T03:09:35.905Z,27.67
2022-12-12T03:12:27.282Z,33.17
2022-12-12T03:15:17.846Z,28.57
2022-12-12T03:18:12.066Z,30.53
2022-12-12T03:21:04.026Z,30.50
2022-12-12T03:23:56.711Z,30.53
2022-12-12T03:26:48.043Z,30.50
2022-12-12T03:29:40.415Z,30.10
2022-12-12T03:32:34.471Z,29.63
2022-12-12T03:35:26.953Z,31.37
2022-12-12T03:38:18.308Z,29.27
2022-12-12T03:41:10.950Z,27.23
2022-12-12T03:44:01.867Z,29.90
2022-12-12T03:46:52.846Z,29.20
2022-12-12T03:49:44.414Z,29.00
2022-12-12T03:52:35.995Z,28.87
2022-12-12T03:55:27.765Z,30.40
2022-12-12T03:58:21.138Z,28.80
2022-12-12T04:01:11.999Z,29.20
2022-12-12T04:04:02.594Z,28.53
2022-12-12T04:06:54.161Z,29.77
2022-12-12T04:10:11.740Z,28.40
2022-12-12T04:13:07.692Z,31.77
2022-12-12T04:16:02.258Z,26.60
2022-12-12T04:18:53.301Z,27.67
2022-12-12T04:22:01.420Z,27.43
2022-12-12T04:24:51.813Z,28.60
2022-12-12T04:27:42.413Z,28.33
2022-12-12T04:30:30.784Z,28.37
2022-12-12T04:33:20.590Z,27.13
2022-12-12T04:36:09.957Z,30.20
2022-12-12T04:38:58.369Z,28.47
2022-12-12T04:41:47.291Z,28.47
2022-12-12T04:44:36.533Z,30.73
2022-12-12T04:47:24.990Z,29.47
2022-12-12T04:50:14.766Z,27.77
2022-12-12T04:53:05.581Z,26.57
2022-12-12T04:55:56.372Z,25.03
2022-12-12T04:58:44.977Z,23.33
2022-12-12T05:01:39.124Z,23.90
2022-12-12T05:04:31.160Z,27.60
2022-12-12T05:07:26.529Z,24.30
2022-12-12T05:10:16.359Z,25.47
2022-12-12T05:13:04.973Z,28.20
2022-12-12T05:15:55.277Z,26.50
2022-12-12T05:18:43.660Z,27.60
2022-12-12T05:21:32.116Z,24.93
2022-12-12T05:24:21.903Z,28.77
2022-12-12T05:27:11.911Z,27.53
2022-12-12T05:30:00.354Z,29.00
2022-12-12T05:32:48.817Z,26.53
2022-12-12T05:35:37.378Z,28.10
2022-12-12T05:38:25.759Z,26.50
2022-12-12T05:41:15.596Z,25.27
2022-12-12T05:44:03.984Z,27.40
2022-12-12T05:46:52.411Z,23.70
2022-12-12T05:49:40.859Z,29.43
2022-12-12T05:52:29.245Z,27.03
2022-12-12T05:55:17.843Z,27.97
2022-12-12T05:58:07.644Z,26.57
2022-12-12T06:01:00.055Z,29.77
2022-12-12T06:03:51.648Z,30.17
2022-12-12T06:06:40.052Z,24.73
2022-12-12T06:09:28.794Z,26.80
2022-12-12T06:12:17.191Z,28.17
2022-12-12T06:15:08.333Z,27.57
2022-12-12T06:17:58.505Z,28.53
2022-12-12T06:20:46.905Z,27.43
2022-12-12T06:23:37.757Z,26.07
2022-12-12T06:26:26.205Z,30.67
2022-12-12T06:29:15.614Z,29.03
2022-12-12T06:32:06.452Z,28.57
2022-12-12T06:34:54.904Z,27.97
2022-12-12T06:37:43.296Z,27.33
2022-12-12T06:40:31.696Z,30.00
2022-12-12T06:43:20.149Z,25.67
2022-12-12T06:46:10.687Z,30.30
2022-12-12T06:49:00.576Z,29.00
2022-12-12T06:51:49.203Z,27.80
2022-12-12T06:54:37.724Z,29.60
2022-12-12T06:57:26.279Z,26.97
2022-12-12T07:00:16.490Z,31.37
2022-12-12T07:03:05.099Z,30.97
2022-12-12T07:05:35.350Z,28.67
2022-12-12T07:08:03.655Z,29.53
2022-12-12T07:10:31.873Z,26.47
2022-12-12T07:13:00.104Z,28.83
2022-12-12T07:15:28.224Z,31.90
2022-12-12T07:17:56.420Z,31.13
2022-12-12T07:20:24.679Z,26.37
2022-12-12T07:22:54.210Z,28.47
2022-12-12T07:25:22.396Z,30.00
2022-12-12T07:27:50.506Z,27.47
2022-12-12T07:30:18.835Z,27.90
2022-12-12T07:32:46.965Z,28.23
2022-12-12T07:35:15.275Z,30.60
2022-12-12T07:37:43.609Z,30.07
2022-12-12T07:40:13.581Z,30.47
2022-12-12T07:42:41.668Z,27.23
2022-12-12T07:45:16.463Z,28.30
2022-12-12T07:47:46.368Z,30.47
2022-12-12T07:50:14.633Z,29.43
2022-12-12T07:52:42.941Z,31.57
2022-12-12T07:55:12.925Z,32.23
2022-12-12T07:57:41.518Z,29.77
2022-12-12T08:00:13.220Z,33.07
2022-12-12T08:02:41.647Z,31.20
2022-12-12T08:05:10.886Z,31.67
2022-12-12T08:07:39.774Z,32.57
2022-12-12T08:10:09.595Z,29.17
2022-12-12T08:12:40.033Z,29.27
2022-12-12T08:15:11.094Z,29.73
2022-12-12T08:17:40.155Z,31.30
2022-12-12T08:20:10.493Z,32.73
2022-12-12T08:22:40.010Z,29.17
2022-12-12T08:25:09.849Z,29.57
2022-12-12T08:27:40.086Z,30.37
2022-12-12T08:30:10.966Z,29.80
2022-12-12T08:32:40.792Z,32.13
2022-12-12T08:35:11.088Z,31.30
2022-12-12T08:37:40.305Z,31.40
2022-12-12T08:40:10.943Z,29.57
2022-12-12T08:42:41.535Z,32.37
2022-12-12T08:45:11.787Z,31.57
2022-12-12T08:47:41.382Z,30.70
2022-12-12T08:50:12.359Z,31.60
2022-12-12T08:52:41.836Z,34.40
2022-12-12T08:55:11.469Z,30.30
2022-12-12T08:57:41.945Z,30.60
2022-12-12T09:00:12.796Z,31.40
2022-12-12T09:02:42.158Z,32.30
2022-12-12T09:05:11.649Z,30.27
2022-12-12T09:07:40.962Z,29.27
2022-12-12T09:10:11.507Z,28.87
2022-12-12T09:12:42.255Z,28.07
2022-12-12T09:15:14.620Z,30.60
2022-12-12T09:17:43.788Z,30.07
2022-12-12T09:20:12.571Z,30.80
2022-12-12T09:22:41.423Z,33.23
2022-12-12T09:25:12.051Z,29.67
2022-12-12T09:27:42.619Z,30.37
2022-12-12T09:30:12.397Z,30.90
2022-12-12T09:32:42.075Z,30.57
2022-12-12T09:35:11.875Z,33.40
2022-12-12T09:37:40.596Z,34.33
2022-12-12T09:40:12.374Z,30.97
2022-12-12T09:42:42.299Z,34.63
2022-12-12T09:45:11.853Z,36.30
2022-12-12T09:47:43.322Z,35.00
2022-12-12T09:50:18.018Z,32.70
2022-12-12T09:52:46.793Z,36.43
2022-12-12T09:55:38.552Z,34.03
2022-12-12T09:58:14.590Z,32.10
2022-12-12T10:00:46.500Z,32.43
2022-12-12T10:03:23.654Z,33.13
2022-12-12T10:06:20.621Z,31.37
2022-12-12T10:08:49.281Z,33.00
2022-12-12T10:11:40.288Z,33.77
2022-12-12T10:14:10.599Z,34.90
2022-12-12T10:16:38.894Z,33.47
2022-12-12T10:19:09.798Z,31.80
2022-12-12T10:21:40.823Z,28.20
2022-12-12T10:24:16.894Z,29.03
2022-12-12T10:26:45.173Z,32.77
2022-12-12T10:29:17.963Z,30.93
2022-12-12T10:31:50.916Z,26.17
2022-12-12T10:34:31.106Z,31.67
2022-12-12T10:37:12.457Z,30.43
2022-12-12T10:39:48.446Z,26.67
2022-12-12T10:42:21.085Z,22.43
2022-12-12T10:45:04.804Z,28.33
2022-12-12T10:47:33.091Z,29.73
2022-12-12T10:50:13.140Z,29.20
2022-12-12T10:52:41.795Z,32.50
2022-12-12T10:55:18.978Z,28.53
2022-12-12T10:57:47.567Z,26.07
2022-12-12T11:00:27.704Z,26.27
2022-12-12T11:03:00.223Z,27.63
2022-12-12T11:05:30.761Z,23.93
2022-12-12T11:08:05.130Z,26.40
2022-12-12T11:10:34.939Z,24.77
2022-12-12T11:13:04.573Z,24.60
2022-12-12T11:15:40.689Z,26.17
2022-12-12T11:18:15.040Z,25.80
2022-12-12T11:20:47.728Z,25.47
2022-12-12T11:23:19.074Z,28.37
2022-12-12T11:25:47.414Z,30.10
2022-12-12T11:28:19.135Z,28.13
2022-12-12T11:30:50.519Z,28.47
2022-12-12T11:33:20.824Z,25.90
2022-12-12T11:35:54.826Z,27.43
2022-12-12T11:38:27.201Z,29.27
2022-12-12T11:41:00.546Z,25.50
2022-12-12T11:43:30.614Z,23.77
2022-12-12T11:46:02.397Z,23.63
2022-12-12T11:48:35.072Z,25.17
2022-12-12T11:51:03.733Z,21.47
2022-12-12T11:53:33.463Z,21.97
2022-12-12T11:56:17.228Z,22.50
2022-12-12T11:58:47.880Z,24.20
2022-12-12T12:01:23.267Z,28.80
2022-12-12T12:04:31.301Z,25.30
2022-12-12T12:07:14.807Z,22.97
2022-12-12T12:09:47.598Z,23.37
2022-12-12T12:12:18.637Z,25.17
2022-12-12T12:15:01.449Z,23.20
2022-12-12T12:17:49.637Z,23.50
2022-12-12T12:20:22.805Z,24.97
2022-12-12T12:22:58.213Z,23.70
2022-12-12T12:25:34.109Z,25.00
2022-12-12T12:28:24.777Z,24.93
2022-12-12T12:30:56.309Z,22.80
2022-12-12T12:33:42.735Z,25.03
2022-12-12T12:36:21.064Z,25.60
2022-12-12T12:39:04.959Z,24.47
2022-12-12T12:41:46.047Z,24.80
2022-12-12T12:44:29.045Z,24.83
2022-12-12T12:47:01.920Z,23.37
2022-12-12T12:49:34.158Z,20.50
2022-12-12T12:52:05.373Z,22.53
2022-12-12T12:54:36.594Z,52.73
2022-12-12T12:57:07.104Z,24.07
2022-12-12T12:59:38.142Z,24.03
2022-12-12T13:02:15.354Z,25.13
2022-12-12T13:04:47.858Z,24.80
2022-12-12T13:07:21.665Z,25.27
2022-12-12T13:09:54.710Z,27.67
2022-12-12T13:12:30.372Z,23.63
2022-12-12T13:15:01.764Z,25.03
2022-12-12T13:17:45.718Z,26.07
2022-12-12T13:20:19.187Z,25.50
2022-12-12T13:23:03.875Z,26.80
2022-12-12T13:25:37.487Z,25.93
2022-12-12T13:28:08.376Z,29.03
2022-12-12T13:30:45.280Z,24.57
2022-12-12T13:33:25.032Z,23.50
2022-12-12T13:36:06.362Z,22.80
2022-12-12T13:38:35.025Z,24.27
2022-12-12T13:41:06.265Z,24.00
2022-12-12T13:43:44.517Z,23.80
2022-12-12T13:46:39.546Z,23.80
2022-12-12T13:49:33.427Z,24.43
2022-12-12T13:52:29.179Z,21.47
2022-12-12T13:55:22.348Z,20.93
2022-12-12T13:58:18.911Z,23.87
2022-12-12T14:00:47.128Z,22.73
2022-12-12T14:03:30.012Z,23.37
2022-12-12T14:06:11.228Z,22.90
2022-12-12T14:08:48.567Z,23.03
2022-12-12T14:11:28.691Z,23.60
2022-12-12T14:14:08.708Z,22.60
2022-12-12T14:16:37.146Z,22.97
2022-12-12T14:19:07.952Z,22.83
2022-12-12T14:21:43.031Z,24.00
2022-12-12T14:24:59.509Z,22.20
2022-12-12T14:28:03.272Z,22.60
2022-12-12T14:30:44.259Z,20.70
2022-12-12T14:33:46.414Z,23.53
2022-12-12T14:36:54.963Z,22.87
2022-12-12T14:39:59.605Z,24.60
2022-12-12T14:43:15.418Z,25.43
2022-12-12T14:45:36.190Z,23.03
2022-12-12T14:48:22.517Z,21.27
2022-12-12T14:50:57.302Z,21.57
2022-12-12T14:53:26.311Z,19.83
2022-12-12T14:55:58.048Z,21.53
2022-12-12T14:58:28.244Z,20.73
2022-12-12T15:00:58.486Z,20.17
2022-12-12T15:03:31.581Z,20.83
2022-12-12T15:06:37.578Z,19.17
2022-12-12T15:09:34.309Z,22.17
2022-12-12T15:12:16.824Z,20.13
2022-12-12T15:14:54.828Z,20.30
2022-12-12T15:17:26.533Z,19.80
2022-12-12T15:19:56.371Z,20.60
2022-12-12T15:22:26.024Z,22.30
2022-12-12T15:24:54.819Z,21.20
2022-12-12T15:27:28.575Z,18.90
2022-12-12T15:29:56.776Z,20.33
2022-12-12T15:32:25.513Z,19.33
2022-12-12T15:35:06.024Z,22.23
2022-12-12T15:37:35.707Z,22.17
2022-12-12T15:40:19.996Z,22.50
2022-12-12T15:42:55.204Z,20.80
2022-12-12T15:45:26.929Z,22.93
2022-12-12T15:47:55.256Z,23.20
2022-12-12T15:50:25.363Z,23.07
2022-12-12T15:53:03.503Z,21.33
2022-12-12T15:55:31.738Z,22.63
2022-12-12T15:58:01.522Z,19.27
2022-12-12T16:00:39.678Z,20.13
2022-12-12T16:03:21.846Z,25.53
2022-12-12T16:06:05.829Z,21.20
2022-12-12T16:08:40.080Z,21.33
2022-12-12T16:11:41.834Z,22.37
2022-12-12T16:14:38.604Z,17.67
2022-12-12T16:17:09.833Z,20.87
2022-12-12T16:19:47.186Z,21.87
2022-12-12T16:22:22.370Z,20.47
2022-12-12T16:24:52.523Z,20.93
2022-12-12T16:27:20.662Z,21.87
2022-12-12T16:29:50.151Z,20.63
2022-12-12T16:32:24.277Z,22.90
2022-12-12T16:34:54.054Z,23.57
2022-12-12T16:37:22.267Z,20.93
2022-12-12T16:39:50.371Z,17.43
2022-12-12T16:42:19.802Z,21.03
2022-12-12T16:44:49.505Z,20.10
2022-12-12T16:47:18.794Z,17.63
2022-12-12T16:49:46.978Z,25.27
2022-12-12T16:52:15.555Z,21.63
2022-12-12T16:54:47.005Z,22.80
2022-12-12T16:57:17.646Z,20.90
2022-12-12T16:59:45.817Z,19.23
2022-12-12T17:02:20.336Z,21.43
2022-12-12T17:04:48.659Z,18.43
2022-12-12T17:07:16.812Z,16.20
2022-12-12T17:09:45.129Z,17.27
2022-12-12T17:12:13.412Z,17.27
2022-12-12T17:14:41.616Z,17.67
2022-12-12T17:17:09.695Z,17.40
2022-12-12T17:19:39.302Z,19.43
2022-12-12T17:22:07.433Z,19.97
2022-12-12T17:24:35.567Z,16.23
2022-12-12T17:27:03.695Z,14.50
2022-12-12T17:29:32.365Z,17.73
2022-12-12T17:32:00.522Z,14.53
2022-12-12T17:34:28.655Z,16.23
2022-12-12T17:36:58.145Z,17.00
2022-12-12T17:39:26.325Z,16.80
2022-12-12T17:41:54.414Z,16.90
2022-12-12T17:44:23.744Z,17.00
2022-12-12T17:46:51.840Z,17.30
2022-12-12T17:49:19.976Z,16.50
2022-12-12T17:51:48.088Z,20.37
2022-12-12T17:54:17.614Z,16.27
2022-12-12T17:56:45.753Z,18.03
2022-12-12T17:59:13.880Z,22.17
2022-12-12T18:01:42.190Z,20.37
2022-12-12T18:04:10.366Z,18.83
2022-12-12T18:06:38.795Z,19.97
2022-12-12T18:09:06.991Z,20.27
2022-12-12T18:11:38.234Z,22.20
2022-12-12T18:14:07.961Z,20.60
2022-12-12T18:16:36.618Z,23.47
2022-12-12T18:19:04.837Z,24.93
2022-12-12T18:21:59.694Z,22.43
2022-12-12T18:24:24.106Z,22.70
2022-12-12T18:26:54.454Z,20.37
2022-12-12T18:29:22.797Z,20.67
2022-12-12T18:31:51.203Z,22.03
2022-12-12T18:34:19.518Z,23.60
2022-12-12T18:36:48.072Z,29.63
2022-12-12T18:39:16.235Z,24.43
2022-12-12T18:41:44.416Z,21.00
2022-12-12T18:44:15.290Z,24.97
2022-12-12T18:46:44.071Z,24.57
2022-12-12T18:49:14.920Z,23.47
2022-12-12T18:51:43.378Z,24.10
2022-12-12T18:54:15.535Z,23.77
2022-12-12T18:56:45.822Z,22.20
2022-12-12T18:59:15.934Z,20.90
2022-12-12T19:01:44.514Z,23.87
2022-12-12T19:04:17.456Z,20.10
2022-12-12T19:06:49.454Z,26.13
2022-12-12T19:09:18.575Z,25.40
2022-12-12T19:11:47.125Z,21.93
2022-12-12T19:14:17.026Z,21.60
2022-12-12T19:16:45.563Z,20.77
2022-12-12T19:19:14.048Z,23.57
2022-12-12T19:21:42.504Z,25.40
2022-12-12T19:24:12.211Z,21.67
2022-12-12T19:26:41.153Z,21.87
2022-12-12T19:29:11.761Z,20.70
2022-12-12T19:31:41.577Z,22.60
2022-12-12T19:34:11.397Z,22.77
2022-12-12T19:36:39.591Z,23.50
2022-12-12T19:39:08.434Z,22.10
2022-12-12T19:41:37.023Z,22.43
2022-12-12T19:44:08.590Z,23.23
2022-12-12T19:46:36.864Z,24.13
2022-12-12T19:49:08.491Z,23.03
2022-12-12T19:51:39.103Z,24.00
2022-12-12T19:54:08.900Z,23.73
2022-12-12T19:56:38.010Z,24.13
2022-12-12T19:59:06.113Z,23.67
2022-12-12T20:01:35.955Z,23.10
2022-12-12T20:04:07.611Z,23.77
2022-12-12T20:06:41.178Z,23.63
2022-12-12T20:09:10.155Z,21.97
2022-12-12T20:11:39.926Z,22.37
2022-12-12T20:14:08.077Z,23.07
2022-12-12T20:16:36.219Z,23.00
2022-12-12T20:19:05.983Z,20.17
2022-12-12T20:24:23.786Z,23.70
2022-12-12T20:26:52.043Z,23.90
2022-12-12T20:29:21.591Z,19.07
2022-12-12T20:31:49.849Z,19.87
2022-12-12T20:34:22.473Z,18.70
2022-12-12T20:36:50.925Z,19.83
2022-12-12T20:39:22.402Z,17.17
2022-12-12T20:41:51.038Z,21.53
2022-12-12T20:44:19.184Z,20.30
2022-12-12T20:46:47.708Z,21.60
2022-12-12T20:49:18.060Z,19.13
2022-12-12T20:51:56.956Z,18.60
2022-12-12T20:54:26.143Z,21.50
2022-12-12T20:56:54.501Z,18.63
2022-12-12T20:59:23.476Z,21.07
2022-12-12T21:01:51.673Z,19.43
2022-12-12T21:04:38.607Z,17.87
2022-12-12T21:07:28.609Z,16.63
2022-12-12T21:10:17.269Z,15.97
2022-12-12T21:13:05.731Z,20.00
2022-12-12T21:15:54.236Z,16.33
2022-12-12T21:18:42.884Z,17.83
2022-12-12T21:21:31.532Z,19.43
2022-12-12T21:24:21.618Z,17.20
2022-12-12T21:27:10.067Z,16.23
2022-12-12T21:29:58.547Z,14.77
2022-12-12T21:32:47.084Z,16.13
2022-12-12T21:35:35.704Z,17.13
2022-12-12T21:38:24.121Z,17.80
2022-12-12T21:41:16.631Z,20.60
2022-12-12T21:44:06.393Z,17.93
2022-12-12T21:46:55.515Z,18.77
2022-12-12T21:49:47.122Z,17.63
2022-12-12T21:52:35.535Z,17.23
2022-12-12T21:55:23.967Z,17.83
2022-12-12T21:58:13.765Z,19.03
2022-12-12T22:01:07.271Z,19.23
2022-12-12T22:03:55.860Z,14.63
2022-12-12T22:06:45.316Z,16.50
2022-12-12T22:09:33.732Z,16.73
2022-12-12T22:12:22.275Z,14.63
2022-12-12T22:15:12.912Z,15.73
2022-12-12T22:18:01.710Z,14.93
2022-12-12T22:20:51.021Z,16.83
2022-12-12T22:23:39.934Z,14.00
2022-12-12T22:26:30.045Z,14.13
2022-12-12T22:29:20.045Z,16.20
2022-12-12T22:32:09.843Z,17.40
2022-12-12T22:34:59.218Z,16.17
2022-12-12T22:37:47.589Z,13.87
2022-12-12T22:40:35.992Z,16.17
2022-12-12T22:43:24.398Z,15.13
2022-12-12T22:46:14.037Z,17.30
2022-12-12T22:49:03.855Z,17.53
2022-12-12T22:51:52.497Z,14.00
2022-12-12T22:54:40.987Z,16.20
2022-12-12T22:57:29.504Z,18.17
2022-12-12T23:00:19.252Z,16.77
2022-12-12T23:03:07.993Z,17.37
2022-12-12T23:06:03.057Z,16.30
2022-12-12T23:08:52.363Z,14.27
2022-12-12T23:11:40.774Z,16.00
2022-12-12T23:14:29.228Z,17.73
2022-12-12T23:17:17.707Z,14.27
2022-12-12T23:20:07.883Z,17.27
2022-12-12T23:22:57.686Z,16.23
2022-12-12T23:25:46.078Z,14.50
2022-12-12T23:28:35.250Z,17.37
2022-12-12T23:31:25.228Z,14.63
2022-12-12T23:34:15.960Z,15.73
2022-12-12T23:37:04.711Z,17.07
2022-12-12T23:39:54.579Z,15.60
2022-12-12T23:42:43.021Z,14.77
2022-12-12T23:45:31.502Z,15.67
2022-12-12T23:48:20.112Z,16.90
2022-12-12T23:51:08.730Z,16.77
2022-12-12T23:53:57.533Z,14.93
2022-12-12T23:56:47.501Z,14.93
2022-12-12T23:59:35.862Z,14.43
